GCHI/VDE METAR and TAF weather

Enter ICAO airport designator
Station Type Date Time Source
GCHI METAR 2019/07/18 11:30 UTC NOAA

GCHI 181130Z 01018KT 340V050 9999 FEW025 BKN030 24/17 Q1020


Station Type Date Time Source
GCHI Decoded METAR 2019/07/18 11:30 UTC NOAA

Hierro / Aeropuerto, Spain (GCHI) 27-49N 017-53W 32M
Jul 18, 2019 - 07:30 AM EDT / 2019.07.18 1130 UTC
Wind: from the N (010 degrees) at 21 MPH (18 KT) (direction variable):0
Visibility: greater than 7 mile(s):0
Sky conditions: mostly cloudy
Temperature: 75 F (24 C)
Dew Point: 62 F (17 C)
Relative Humidity: 64%
Pressure (altimeter): 30.12 in. Hg (1020 hPa)
ob: GCHI 181130Z 01018KT 340V050 9999 FEW025 BKN030 24/17 Q1020
cycle: 11

Station Type Date Time Source
GCHI TAF 2019/07/18 09:00 UTC NOAA

TAF GCHI 180800Z 1809/1909 36020KT 9999 SCT020 TX25/1815Z TN21/1905Z

Example: see airport list